Aeroporto :
LOGIN :

Iscrizione | Disclaimer

   EN    FR    IT 

 










Sommario :    VFR   VFR Marginale   IFR   IFR Intensivo   IFR Molto Intensivo
Visibilità : 
Base nubi : 
>= 8 km
>= 3000ft
5 / 8 km
1000 / 3000 ft
1500m / 5 km
500 / 1000 ft
800 / 1500m
200 / 500 ft
< 800m
< 200 ft
Simboli :   Temporali  Nebbia  Neve Forte  Precipitazioni Forti  Vento > 20 kt
SIGMETs :   Varie  Temporali  Ghiacco  Turbolenza  Onda orograficha  Ceneri Vulcaniche






- Altitudine del aeroporto : 670 ft
- Codice IATA : MSQ


UMMS - Minsk - 2

ULTIMO METAR :
  • 071030Z 20007G10MPS CAVOK 16/M08 Q1032 R31R/////// R31L/CLRD// NOSIG

METARs OBSOLETI :
  • 071000Z 21006G11MPS 190V250 CAVOK 16/M09 Q1032 R31R/////// R31L/CLRD// NOSIG
  • 070930Z 21006G09MPS 190V250 CAVOK 15/M07 Q1032 R31R/////// R31L/CLRD// NOSIG
  • 070900Z 21006G09MPS 160V240 CAVOK 14/M09 Q1033 R31R/////// R31L/CLRD// NOSIG
  • 070830Z 22005G08MPS 180V240 CAVOK 13/M05 Q1033 R31R/////// R31L/CLRD// NOSIG
  • 070800Z 23004G07MPS 210V270 CAVOK 12/M06 Q1033 R31R/////// R31L/CLRD// NOSIG

TAF TAF UMMS
Valido dal 07 a 06 ore il 08 a 06 ore UTC


070504Z 0706/0806 20005G10MPS CAVOK
TEMPO 0706/0716 23009G14MPS
BECMG 0716/0717 27005MPS 9999 SCT020



MetMap, La meteo Aeronautica in un colpo d'occhio ! - Copyright ORBIFLY Dicembre 2007 - Disclaimer

ORBIFLY MET'MAP TEAM :

Programmazione e sviluppo : Alexandra Zaïnal
Concezione : Baudouin d'Aumeries
Aiuto per la programmazione : Marc-Olivier Méhu
Supporto tecnico e logistico : Manuel Goepfert
Aiuto per la traduzione : Arnaldo La Scala

Contatto : metmap@orbifly.com




FONTI E CREDITI :

   NOAA